createdAt,value
2023-03-19T00:01:30.811Z,10.70
2023-03-19T00:03:59.248Z,10.70
2023-03-19T00:06:27.770Z,11.00
2023-03-19T00:08:56.349Z,9.50
2023-03-19T00:11:25.548Z,9.90
2023-03-19T00:13:53.938Z,10.50
2023-03-19T00:16:22.562Z,11.50
2023-03-19T00:18:50.849Z,10.80
2023-03-19T00:21:19.116Z,5.40
2023-03-19T00:23:48.737Z,7.60
2023-03-19T00:26:17.005Z,7.20
2023-03-19T00:28:47.215Z,7.10
2023-03-19T00:31:17.361Z,7.40
2023-03-19T00:33:46.523Z,9.20
2023-03-19T00:36:16.559Z,9.90
2023-03-19T00:38:48.419Z,8.90
2023-03-19T00:41:19.055Z,9.30
2023-03-19T00:43:48.195Z,8.30
2023-03-19T00:46:18.142Z,9.40
2023-03-19T00:48:48.775Z,8.40
2023-03-19T00:51:18.732Z,9.20
2023-03-19T00:53:47.856Z,4.60
2023-03-19T00:56:18.452Z,7.40
2023-03-19T00:58:51.272Z,6.50
2023-03-19T01:01:20.132Z,5.90
2023-03-19T01:03:49.247Z,6.90
2023-03-19T01:06:17.589Z,7.10
2023-03-19T01:08:47.848Z,7.80
2023-03-19T01:11:17.557Z,8.20
2023-03-19T01:13:48.138Z,7.20
2023-03-19T01:16:18.141Z,7.50
2023-03-19T01:18:46.784Z,8.20
2023-03-19T01:21:15.680Z,8.00
2023-03-19T01:23:48.464Z,4.30
2023-03-19T01:26:18.271Z,6.30
2023-03-19T01:28:47.450Z,5.80
2023-03-19T01:31:16.716Z,6.00
2023-03-19T01:33:57.132Z,6.50
2023-03-19T01:36:35.956Z,7.30
2023-03-19T01:39:07.408Z,7.90
2023-03-19T01:41:36.117Z,8.40
2023-03-19T01:44:30.887Z,8.70
2023-03-19T01:47:32.758Z,9.20
2023-03-19T01:50:38.712Z,9.40
2023-03-19T01:53:30.477Z,11.90
2023-03-19T01:56:21.676Z,5.60
2023-03-19T01:59:24.120Z,11.10
2023-03-19T02:02:21.808Z,8.10
2023-03-19T02:04:56.617Z,7.80
2023-03-19T02:07:26.612Z,8.80
2023-03-19T02:09:55.259Z,10.40
2023-03-19T02:12:23.572Z,10.60
2023-03-19T02:14:56.931Z,10.40
2023-03-19T02:17:26.782Z,10.60
2023-03-19T02:20:05.400Z,10.80
2023-03-19T02:22:35.714Z,11.10
2023-03-19T02:25:15.574Z,11.20
2023-03-19T02:27:44.250Z,6.40
2023-03-19T02:30:22.646Z,8.50
2023-03-19T02:32:51.646Z,8.10
2023-03-19T02:35:27.035Z,8.80
2023-03-19T02:37:55.413Z,10.10
2023-03-19T02:40:29.593Z,9.40
2023-03-19T02:42:59.135Z,9.50
2023-03-19T02:45:30.482Z,11.20
2023-03-19T02:48:00.310Z,13.10
2023-03-19T02:50:28.775Z,12.10
2023-03-19T02:52:59.109Z,12.30
2023-03-19T02:55:27.420Z,6.60
2023-03-19T02:57:55.823Z,8.70
2023-03-19T03:00:25.779Z,10.70
2023-03-19T03:02:57.238Z,9.60
2023-03-19T03:05:26.430Z,8.70
2023-03-19T03:07:55.322Z,9.20
2023-03-19T03:10:23.610Z,10.30
2023-03-19T03:12:52.152Z,10.90
2023-03-19T03:15:21.697Z,10.40
2023-03-19T03:17:50.532Z,9.70
2023-03-19T03:20:19.962Z,6.50
2023-03-19T03:22:48.671Z,7.30
2023-03-19T03:25:17.007Z,9.20
2023-03-19T03:27:51.096Z,9.20
2023-03-19T03:30:20.513Z,9.30
2023-03-19T03:32:48.844Z,9.40
2023-03-19T03:35:22.121Z,10.00
2023-03-19T03:37:52.054Z,10.60
2023-03-19T03:40:25.865Z,9.40
2023-03-19T03:42:55.097Z,9.90
2023-03-19T03:45:23.659Z,7.90
2023-03-19T03:47:55.291Z,8.70
2023-03-19T03:50:24.971Z,9.10
2023-03-19T03:52:54.896Z,8.60
2023-03-19T03:55:23.340Z,11.10
2023-03-19T03:57:52.170Z,11.40
2023-03-19T04:00:25.666Z,13.20
2023-03-19T04:02:54.369Z,10.30
2023-03-19T04:05:22.904Z,11.40
2023-03-19T04:07:52.882Z,12.20
2023-03-19T04:10:21.819Z,11.40
2023-03-19T04:12:50.868Z,6.90
2023-03-19T04:15:20.564Z,6.40
2023-03-19T04:17:49.735Z,7.80
2023-03-19T04:20:18.830Z,8.80
2023-03-19T04:22:48.582Z,9.80
2023-03-19T04:25:17.431Z,9.50
2023-03-19T04:27:46.396Z,11.10
2023-03-19T04:30:15.619Z,12.40
2023-03-19T04:32:46.594Z,10.70
2023-03-19T04:35:18.650Z,10.30
2023-03-19T04:37:48.850Z,11.60
2023-03-19T04:40:18.586Z,6.90
2023-03-19T04:42:49.830Z,8.10
2023-03-19T04:45:33.392Z,10.10
2023-03-19T04:48:01.952Z,10.40
2023-03-19T04:50:31.806Z,9.00
2023-03-19T04:53:01.632Z,9.30
2023-03-19T04:55:30.464Z,12.30
2023-03-19T04:58:06.034Z,12.50
2023-03-19T05:00:36.276Z,10.10
2023-03-19T05:03:05.113Z,11.20
2023-03-19T05:05:34.123Z,11.30
2023-03-19T05:08:04.237Z,12.00
2023-03-19T05:10:34.405Z,7.90
2023-03-19T05:13:04.068Z,8.10
2023-03-19T05:15:33.998Z,10.60
2023-03-19T05:18:08.771Z,8.60
2023-03-19T05:20:44.514Z,9.10
2023-03-19T05:23:19.390Z,11.60
2023-03-19T05:25:54.916Z,11.60
2023-03-19T05:28:33.663Z,11.60
2023-03-19T05:31:05.030Z,12.00
2023-03-19T05:33:46.393Z,11.20
2023-03-19T05:36:16.007Z,10.30
2023-03-19T05:39:00.886Z,10.30
2023-03-19T05:41:34.419Z,10.50
2023-03-19T05:44:05.301Z,6.90
2023-03-19T05:46:44.267Z,8.10
2023-03-19T05:49:12.943Z,8.50
2023-03-19T05:51:43.369Z,8.60
2023-03-19T05:54:11.826Z,9.90
2023-03-19T05:56:51.700Z,10.30
2023-03-19T05:59:41.721Z,11.10
2023-03-19T06:02:48.530Z,9.50
2023-03-19T06:05:27.894Z,10.70
2023-03-19T06:08:00.048Z,10.60
2023-03-19T06:10:46.732Z,11.50
2023-03-19T06:13:17.521Z,10.80
2023-03-19T06:15:57.484Z,10.50
2023-03-19T06:18:36.784Z,10.50
2023-03-19T06:21:11.038Z,10.80
2023-03-19T06:23:41.895Z,11.50
2023-03-19T06:26:17.530Z,11.00
2023-03-19T06:28:51.070Z,11.60
2023-03-19T06:31:19.903Z,6.70
2023-03-19T06:33:56.633Z,6.50
2023-03-19T06:36:28.211Z,8.30
2023-03-19T06:38:58.723Z,9.00
2023-03-19T06:41:27.712Z,8.80
2023-03-19T06:44:01.624Z,10.00
2023-03-19T06:46:30.162Z,9.30
2023-03-19T06:48:58.584Z,8.00
2023-03-19T06:51:30.750Z,7.50
2023-03-19T06:53:58.926Z,7.80
2023-03-19T06:56:27.691Z,8.20
2023-03-19T06:58:56.716Z,8.50
2023-03-19T07:01:25.761Z,7.80
2023-03-19T07:03:54.390Z,7.50
2023-03-19T07:06:24.148Z,7.30
2023-03-19T07:08:52.365Z,7.00
2023-03-19T07:11:20.964Z,7.00
2023-03-19T07:13:51.624Z,6.30
2023-03-19T07:16:20.266Z,6.30
2023-03-19T07:18:53.277Z,7.10
2023-03-19T07:21:21.817Z,6.90
2023-03-19T07:23:51.112Z,7.10
2023-03-19T07:26:19.903Z,7.20
2023-03-19T07:28:48.675Z,7.20
2023-03-19T07:31:17.814Z,6.60
2023-03-19T07:33:50.774Z,6.40
2023-03-19T07:36:19.522Z,6.00
2023-03-19T07:38:47.774Z,5.80
2023-03-19T07:41:15.939Z,5.40
2023-03-19T07:43:45.618Z,5.40
2023-03-19T07:48:46.715Z,6.40
2023-03-19T07:51:14.992Z,4.50
2023-03-19T07:53:47.247Z,4.10
2023-03-19T07:56:16.037Z,4.20
2023-03-19T07:58:44.206Z,3.50
2023-03-19T08:01:12.772Z,3.30
2023-03-19T08:03:41.142Z,4.60
2023-03-19T08:06:09.448Z,4.30
2023-03-19T08:08:38.369Z,4.40
2023-03-19T08:11:07.052Z,4.40
2023-03-19T08:13:35.530Z,3.20
2023-03-19T08:16:07.095Z,3.00
2023-03-19T08:18:36.872Z,3.50
2023-03-19T08:21:05.366Z,3.60
2023-03-19T08:23:35.833Z,3.80
2023-03-19T08:26:04.333Z,4.40
2023-03-19T08:28:40.817Z,3.10
2023-03-19T08:31:14.159Z,3.10
2023-03-19T08:33:42.546Z,3.00
2023-03-19T08:36:13.311Z,3.00
2023-03-19T08:38:41.984Z,3.20
2023-03-19T08:41:11.532Z,4.00
2023-03-19T08:43:41.093Z,4.20
2023-03-19T08:46:09.658Z,3.70
2023-03-19T08:48:41.439Z,3.30
2023-03-19T08:51:13.005Z,3.60
2023-03-19T08:53:41.328Z,4.20
2023-03-19T08:56:09.558Z,4.20
2023-03-19T08:58:42.880Z,5.00
2023-03-19T09:01:14.206Z,4.50
2023-03-19T09:03:45.205Z,4.70
2023-03-19T09:06:16.223Z,4.80
2023-03-19T09:11:27.570Z,4.00
2023-03-19T09:13:56.841Z,5.00
2023-03-19T09:16:26.441Z,4.20
2023-03-19T09:18:59.274Z,4.60
2023-03-19T09:21:28.616Z,5.20
2023-03-19T09:23:56.893Z,5.00
2023-03-19T09:26:25.101Z,4.50
2023-03-19T09:28:53.531Z,5.10
2023-03-19T09:31:29.457Z,4.10
2023-03-19T09:33:58.721Z,4.80
2023-03-19T09:36:26.930Z,4.50
2023-03-19T09:38:56.197Z,4.70
2023-03-19T09:42:04.075Z,4.10
2023-03-19T09:44:41.358Z,3.80
2023-03-19T09:47:36.479Z,4.30
2023-03-19T09:50:13.649Z,5.10
2023-03-19T09:52:57.658Z,5.10
2023-03-19T09:55:31.091Z,4.50
2023-03-19T09:58:02.327Z,4.50
2023-03-19T10:00:35.732Z,4.40
2023-03-19T10:03:21.691Z,4.50
2023-03-19T10:06:14.755Z,4.10
2023-03-19T10:09:17.566Z,4.10
2023-03-19T10:12:06.129Z,4.80
2023-03-19T10:14:53.540Z,6.70
2023-03-19T10:17:31.240Z,5.30
2023-03-19T10:20:06.586Z,8.90
2023-03-19T10:23:04.252Z,9.00
2023-03-19T10:25:34.208Z,9.30
2023-03-19T10:28:14.438Z,8.60
2023-03-19T10:30:50.051Z,6.30
2023-03-19T10:33:24.669Z,5.20
2023-03-19T10:36:16.096Z,5.10
2023-03-19T10:38:44.895Z,4.20
2023-03-19T10:41:21.449Z,3.80
2023-03-19T10:44:04.087Z,4.00
2023-03-19T10:46:41.451Z,6.60
2023-03-19T10:49:14.701Z,7.70
2023-03-19T10:51:48.968Z,9.00
2023-03-19T10:54:28.532Z,8.90
2023-03-19T10:56:59.881Z,5.90
2023-03-19T10:59:31.145Z,6.80
2023-03-19T11:02:16.304Z,9.70
2023-03-19T11:04:44.502Z,5.70
2023-03-19T11:07:15.460Z,5.10
2023-03-19T11:09:52.177Z,4.80
2023-03-19T11:12:23.280Z,8.30
2023-03-19T11:15:07.558Z,6.80
2023-03-19T11:17:47.751Z,5.70
2023-03-19T11:20:37.223Z,6.10
2023-03-19T11:23:16.714Z,7.50
2023-03-19T11:25:53.812Z,5.20
2023-03-19T11:28:26.394Z,4.90
2023-03-19T11:31:10.508Z,5.00
2023-03-19T11:34:11.679Z,4.90
2023-03-19T11:36:48.273Z,7.40
2023-03-19T11:39:36.214Z,7.60
2023-03-19T11:42:27.101Z,5.80
2023-03-19T11:44:58.467Z,4.80
2023-03-19T11:47:49.044Z,6.70
2023-03-19T11:50:30.647Z,6.30
2023-03-19T11:53:07.948Z,5.30
2023-03-19T11:55:54.794Z,4.70
2023-03-19T11:59:09.217Z,4.90
2023-03-19T12:01:59.258Z,7.10
2023-03-19T12:04:49.576Z,5.70
2023-03-19T12:07:33.248Z,4.10
2023-03-19T12:10:40.551Z,4.90
2023-03-19T12:13:34.316Z,4.10
2023-03-19T12:16:46.481Z,4.00
2023-03-19T12:19:24.198Z,3.80
2023-03-19T12:21:58.582Z,4.20
2023-03-19T12:25:05.723Z,4.40
2023-03-19T12:27:45.106Z,4.00
2023-03-19T12:30:25.593Z,4.10
2023-03-19T12:33:09.452Z,4.30
2023-03-19T12:35:43.349Z,4.20
2023-03-19T12:38:31.555Z,4.20
2023-03-19T12:41:11.151Z,4.10
2023-03-19T12:43:56.098Z,4.10
2023-03-19T12:46:43.226Z,4.00
2023-03-19T12:49:22.073Z,4.00
2023-03-19T12:51:56.531Z,4.50
2023-03-19T12:54:29.435Z,4.30
2023-03-19T12:57:10.964Z,3.90
2023-03-19T13:00:01.534Z,4.60
2023-03-19T13:02:54.540Z,4.40
2023-03-19T13:05:38.240Z,4.40
2023-03-19T13:08:22.157Z,3.60
2023-03-19T13:10:50.487Z,4.00
2023-03-19T13:13:42.634Z,5.30
2023-03-19T13:16:49.216Z,4.90
2023-03-19T13:19:18.334Z,4.20
2023-03-19T13:23:32.522Z,4.30
2023-03-19T13:26:04.844Z,4.50
2023-03-19T13:28:36.785Z,4.70
2023-03-19T13:34:03.145Z,4.40
2023-03-19T13:36:38.335Z,4.60
2023-03-19T13:39:24.640Z,5.00
2023-03-19T13:42:31.089Z,4.70
2023-03-19T13:45:25.393Z,4.60
2023-03-19T13:47:58.640Z,4.60
2023-03-19T13:50:29.467Z,5.10
2023-03-19T13:53:22.459Z,5.00
2023-03-19T13:55:54.854Z,4.50
2023-03-19T13:58:46.296Z,4.70
2023-03-19T14:01:44.946Z,4.50
2023-03-19T14:04:32.916Z,5.00
2023-03-19T14:07:24.734Z,4.70
2023-03-19T14:09:57.601Z,4.20
2023-03-19T14:12:41.380Z,4.50
2023-03-19T14:15:10.023Z,4.40
2023-03-19T14:17:42.420Z,4.10
2023-03-19T14:20:12.548Z,4.60
2023-03-19T14:23:04.833Z,4.50
2023-03-19T14:26:05.285Z,3.90
2023-03-19T14:28:38.874Z,4.90
2023-03-19T14:33:55.947Z,4.90
2023-03-19T14:36:25.229Z,6.60
2023-03-19T14:39:02.156Z,6.10
2023-03-19T14:41:35.112Z,5.30
2023-03-19T14:44:23.214Z,5.30
2023-03-19T14:47:26.523Z,5.20
2023-03-19T14:50:27.550Z,4.40
2023-03-19T14:53:01.739Z,4.70
2023-03-19T14:55:36.224Z,8.20
2023-03-19T14:58:06.400Z,8.10
2023-03-19T15:00:46.401Z,7.20
2023-03-19T15:03:38.198Z,6.10
2023-03-19T15:06:11.173Z,5.00
2023-03-19T15:08:41.710Z,6.30
2023-03-19T15:11:24.624Z,5.30
2023-03-19T15:14:06.708Z,5.40
2023-03-19T15:17:00.052Z,5.90
2023-03-19T15:19:32.291Z,5.70
2023-03-19T15:22:09.813Z,5.70
2023-03-19T15:24:38.141Z,5.60
2023-03-19T15:27:27.054Z,5.00
2023-03-19T15:30:06.987Z,5.30
2023-03-19T15:32:54.396Z,5.50
2023-03-19T15:35:36.519Z,5.40
2023-03-19T15:38:11.143Z,5.60
2023-03-19T15:40:42.559Z,5.30
2023-03-19T15:43:13.352Z,5.90
2023-03-19T15:45:48.288Z,6.30
2023-03-19T15:48:28.415Z,5.90
2023-03-19T15:51:00.099Z,5.30
2023-03-19T15:53:33.056Z,5.40
2023-03-19T15:56:05.551Z,5.60
2023-03-19T15:58:42.281Z,6.00
2023-03-19T16:01:15.468Z,5.90
2023-03-19T16:03:56.670Z,5.90
2023-03-19T16:06:30.641Z,6.40
2023-03-19T16:09:26.267Z,6.40
2023-03-19T16:11:56.207Z,7.60
2023-03-19T16:14:40.734Z,7.30
2023-03-19T16:17:20.493Z,8.10
2023-03-19T16:19:56.274Z,8.40
2023-03-19T16:22:33.119Z,8.90
2023-03-19T16:25:02.638Z,8.50
2023-03-19T16:27:36.602Z,9.40
2023-03-19T16:30:23.944Z,9.50
2023-03-19T16:33:00.060Z,8.80
2023-03-19T16:35:30.533Z,8.90
2023-03-19T16:38:22.897Z,8.80
2023-03-19T16:41:16.608Z,9.10
2023-03-19T16:43:54.990Z,9.80
2023-03-19T16:46:26.413Z,10.20
2023-03-19T16:49:02.799Z,10.00
2023-03-19T16:51:31.083Z,11.20
2023-03-19T16:53:59.489Z,10.60
2023-03-19T16:56:27.972Z,11.00
2023-03-19T16:58:56.480Z,9.70
2023-03-19T17:01:26.476Z,11.20
2023-03-19T17:03:56.094Z,12.10
2023-03-19T17:06:24.856Z,12.90
2023-03-19T17:08:54.568Z,12.40
2023-03-19T17:11:34.717Z,16.90
2023-03-19T17:14:06.924Z,23.20
2023-03-19T17:16:35.729Z,14.10
2023-03-19T17:19:16.053Z,12.90
2023-03-19T17:21:51.499Z,8.60
2023-03-19T17:24:28.949Z,7.70
2023-03-19T17:27:00.287Z,7.90
2023-03-19T17:29:31.932Z,10.20
2023-03-19T17:32:04.315Z,13.30
2023-03-19T17:34:38.727Z,11.90
2023-03-19T17:37:12.824Z,10.70
2023-03-19T17:39:42.643Z,9.80
2023-03-19T17:44:49.465Z,7.80
2023-03-19T17:47:18.717Z,8.10
2023-03-19T17:49:47.717Z,7.90
2023-03-19T17:52:17.972Z,6.90
2023-03-19T17:54:47.179Z,6.50
2023-03-19T17:57:16.233Z,7.70
2023-03-19T17:59:44.469Z,8.50
2023-03-19T18:02:25.111Z,8.20
2023-03-19T18:04:54.571Z,7.80
2023-03-19T18:07:23.522Z,8.10
2023-03-19T18:09:52.277Z,9.00
2023-03-19T18:12:21.166Z,9.40
2023-03-19T18:14:49.390Z,9.10
2023-03-19T18:17:19.084Z,9.70
2023-03-19T18:19:50.867Z,9.40
2023-03-19T18:22:22.773Z,9.40
2023-03-19T18:24:52.292Z,10.40
2023-03-19T18:27:24.368Z,11.60
2023-03-19T18:29:52.920Z,11.30
2023-03-19T18:32:32.375Z,10.10
2023-03-19T18:35:00.833Z,10.50
2023-03-19T18:37:32.211Z,9.90
2023-03-19T18:40:00.894Z,9.90
2023-03-19T18:42:32.208Z,11.20
2023-03-19T18:45:00.770Z,10.50
2023-03-19T18:47:30.439Z,10.50
2023-03-19T18:49:58.991Z,10.70
2023-03-19T18:52:27.664Z,10.40
2023-03-19T18:54:55.947Z,12.80
2023-03-19T18:57:24.425Z,15.00
2023-03-19T18:59:53.467Z,11.80
2023-03-19T19:02:37.510Z,12.10
2023-03-19T19:07:34.033Z,11.00
2023-03-19T19:10:05.578Z,13.60
2023-03-19T19:12:35.798Z,13.90
2023-03-19T19:15:05.241Z,15.30
2023-03-19T19:17:35.288Z,16.20
2023-03-19T19:20:04.125Z,15.10
2023-03-19T19:22:36.366Z,15.80
2023-03-19T19:25:05.135Z,16.70
2023-03-19T19:27:33.882Z,13.90
2023-03-19T19:30:03.700Z,17.60
2023-03-19T19:32:36.541Z,16.60
2023-03-19T19:35:14.370Z,15.30
2023-03-19T19:37:44.304Z,14.70
2023-03-19T19:40:15.824Z,14.70
2023-03-19T19:42:46.248Z,16.70
2023-03-19T19:45:25.953Z,15.40
2023-03-19T19:47:54.310Z,14.50
2023-03-19T19:50:25.549Z,15.30
2023-03-19T19:52:55.634Z,9.10
2023-03-19T19:55:26.206Z,10.50
2023-03-19T19:57:56.484Z,11.40
2023-03-19T20:00:36.609Z,10.90
2023-03-19T20:03:06.514Z,10.90
2023-03-19T20:05:36.572Z,13.50
2023-03-19T20:08:05.853Z,13.60
2023-03-19T20:10:34.102Z,14.20
2023-03-19T20:13:03.074Z,14.00
2023-03-19T20:15:34.707Z,15.80
2023-03-19T20:18:05.196Z,15.40
2023-03-19T20:20:33.877Z,17.40
2023-03-19T20:23:04.377Z,17.20
2023-03-19T20:25:32.858Z,16.00
2023-03-19T20:28:02.229Z,17.40
2023-03-19T20:30:37.367Z,16.20
2023-03-19T20:33:06.363Z,15.70
2023-03-19T20:35:36.787Z,16.90
2023-03-19T20:38:06.897Z,10.90
2023-03-19T20:40:39.864Z,11.90
2023-03-19T20:43:34.385Z,12.50
2023-03-19T20:46:05.862Z,12.50
2023-03-19T20:48:34.983Z,14.30
2023-03-19T20:51:04.209Z,15.50
2023-03-19T20:53:36.258Z,16.40
2023-03-19T20:56:10.590Z,17.00
2023-03-19T20:58:40.484Z,17.20
2023-03-19T21:01:09.467Z,16.10
2023-03-19T21:03:38.327Z,16.90
2023-03-19T21:06:19.314Z,16.00
2023-03-19T21:08:53.389Z,16.20
2023-03-19T21:11:37.238Z,15.00
2023-03-19T21:14:06.480Z,8.90
2023-03-19T21:16:34.988Z,10.70
2023-03-19T21:19:06.896Z,10.90
2023-03-19T21:21:37.709Z,12.90
2023-03-19T21:24:12.983Z,13.20
2023-03-19T21:26:46.436Z,14.60
2023-03-19T21:29:29.932Z,15.20
2023-03-19T21:31:58.545Z,19.20
2023-03-19T21:34:28.483Z,22.10
2023-03-19T21:36:57.028Z,19.90
2023-03-19T21:39:25.307Z,18.30
2023-03-19T21:41:54.043Z,16.30
2023-03-19T21:44:29.781Z,9.40
2023-03-19T21:46:58.651Z,10.40
2023-03-19T21:49:27.384Z,10.90
2023-03-19T21:51:57.467Z,11.50
2023-03-19T21:54:26.302Z,11.70
2023-03-19T21:56:57.843Z,10.70
2023-03-19T21:59:34.815Z,10.80
2023-03-19T22:02:04.553Z,11.10
2023-03-19T22:04:32.871Z,11.10
2023-03-19T22:07:01.368Z,11.20
2023-03-19T22:09:29.956Z,12.20
2023-03-19T22:12:00.443Z,12.40
2023-03-19T22:14:28.995Z,7.70
2023-03-19T22:16:57.458Z,9.50
2023-03-19T22:19:27.756Z,8.30
2023-03-19T22:21:55.948Z,9.00
2023-03-19T22:24:24.484Z,9.70
2023-03-19T22:26:57.760Z,10.90
2023-03-19T22:29:27.569Z,11.80
2023-03-19T22:31:57.239Z,12.10
2023-03-19T22:34:28.306Z,12.40
2023-03-19T22:36:56.689Z,12.50
2023-03-19T22:39:25.388Z,12.90
2023-03-19T22:41:55.800Z,12.70
2023-03-19T22:44:28.185Z,8.20
2023-03-19T22:46:58.844Z,8.90
2023-03-19T22:49:28.429Z,9.90
2023-03-19T22:51:57.841Z,9.60
2023-03-19T22:54:27.125Z,11.20
2023-03-19T22:56:55.792Z,12.40
2023-03-19T22:59:24.180Z,12.80
2023-03-19T23:01:52.506Z,13.30
2023-03-19T23:04:26.526Z,13.60
2023-03-19T23:06:56.951Z,12.70
2023-03-19T23:09:31.926Z,11.30
2023-03-19T23:12:01.126Z,7.00
2023-03-19T23:14:31.658Z,7.90
2023-03-19T23:17:03.851Z,9.80
2023-03-19T23:19:38.582Z,8.50
2023-03-19T23:22:15.110Z,8.80
2023-03-19T23:24:44.869Z,10.10
2023-03-19T23:27:24.806Z,10.70
2023-03-19T23:29:54.287Z,9.50
2023-03-19T23:32:29.115Z,10.20
2023-03-19T23:35:01.491Z,11.70
2023-03-19T23:37:30.500Z,7.10
2023-03-19T23:40:00.934Z,7.60
2023-03-19T23:42:32.258Z,11.30
2023-03-19T23:45:04.797Z,11.40
2023-03-19T23:47:34.024Z,9.60
2023-03-19T23:50:02.419Z,10.80
2023-03-19T23:52:31.413Z,10.70
2023-03-19T23:54:59.888Z,9.80
2023-03-19T23:57:31.256Z,10.00
2023-03-19T23:59:59.517Z,10.90
